Messwerte Wetterstation Rheinstetten 116m (Baden-Württemberg)

Aktuelle Messwerte

Temperatur und Niederschlag
Taupunkt, Temperatur und Luftfeuchtigkeit

Anzeige

Windrichtung und Windböen
Luftdruck
Datum Temperatur °C Niederschlag l/m² (10 min) Taupunkt °C Rel. Feuchte % Windböen km/h Windrichtung Luftdruck (hPa)
20.04 - 07:50 Uhr 6.3 0.0 5.2 93 2 80 1006
20.04 - 07:40 Uhr 5.8 0.0 4.8 93 3 130 1006
20.04 - 07:30 Uhr 5.4 0.0 4.4 93 3 80 1006
20.04 - 07:20 Uhr 5.3 0.0 4.2 93 2 130 1005
20.04 - 07:10 Uhr 5.2 0.0 3.9 92 1 210 1005
20.04 - 07:00 Uhr 4.8 0.0 3.9 94 5 140 1005
20.04 - 06:50 Uhr 4.7 0.0 3.8 94 4 140 1005
20.04 - 06:40 Uhr 4.7 0.0 4.0 95 6 140 1005
20.04 - 06:30 Uhr 4.9 0.0 3.9 93 5 140 1005
20.04 - 06:20 Uhr 5.2 0.0 4.0 92 3 190 1005
20.04 - 06:10 Uhr 5.2 0.0 4.4 94 3 290 1005
20.04 - 06:00 Uhr 5.1 0.0 4.2 94 3 80 1005
20.04 - 05:50 Uhr 5.0 0.0 4.2 95 2 110 1005
20.04 - 05:40 Uhr 4.9 0.0 4.1 94 3 110 1005
20.04 - 05:30 Uhr 4.8 0.0 4.0 95 3 210 1005
20.04 - 05:20 Uhr 4.6 0.0 3.9 95 6 190 1005
20.04 - 05:10 Uhr 4.7 0.0 3.9 94 6 190 1005
20.04 - 05:00 Uhr 4.7 0.0 3.9 95 3 150 1005
20.04 - 04:50 Uhr 5.1 0.0 4.4 96 1 240 1005
20.04 - 04:40 Uhr 5.2 0.0 4.5 95 3 200 1006
20.04 - 04:30 Uhr 5.7 0.0 4.5 92 5 200 1006
20.04 - 04:20 Uhr 6.0 0.0 4.9 93 4 140 1006
20.04 - 04:10 Uhr 6.1 0.0 5.0 93 4 130 1006
20.04 - 04:00 Uhr 6.0 0.0 5.0 93 4 110 1006
20.04 - 03:50 Uhr 5.8 0.0 5.0 95 4 160 1006
20.04 - 03:40 Uhr 5.7 0.0 4.6 93 5 140 1006
20.04 - 03:30 Uhr 5.7 0.0 5.0 95 2 80 1006
20.04 - 03:20 Uhr 5.6 0.0 4.8 95 3 150 1006
20.04 - 03:10 Uhr 5.4 0.0 4.4 93 7 40 1006
20.04 - 03:00 Uhr 5.3 0.0 4.3 93 9 40 1006
20.04 - 02:50 Uhr 5.1 0.0 4.2 94 4 90 1006
20.04 - 02:40 Uhr 4.8 0.0 4.1 95 5 170 1006
20.04 - 02:30 Uhr 4.5 0.0 3.7 94 4 180 1006
20.04 - 02:20 Uhr 4.1 0.0 3.4 95 3 140 1006
20.04 - 02:10 Uhr 4.1 0.0 3.2 94 3 70 1006
20.04 - 02:00 Uhr 4.3 0.0 3.5 95 3 90 1006
20.04 - 01:50 Uhr 4.6 0.0 3.7 94 3 200 1006
20.04 - 01:40 Uhr 4.4 0.0 3.5 94 4 170 1006
20.04 - 01:30 Uhr 4.9 0.0 3.9 94 2 220 1006
20.04 - 01:20 Uhr 5.0 0.0 4.0 93 2 170 1006
20.04 - 01:10 Uhr 5.4 0.0 4.3 92 4 220 1006
20.04 - 01:00 Uhr 5.4 0.0 4.4 94 3 230 1007
20.04 - 00:50 Uhr 5.7 0.0 4.4 91 3 210 1007
20.04 - 00:40 Uhr 5.6 0.0 4.2 91 4 180 1006
20.04 - 00:30 Uhr 6.1 0.0 4.6 90 6 140 1007
20.04 - 00:20 Uhr 6.3 0.0 5.0 91 4 130 1007
20.04 - 00:10 Uhr 6.4 0.0 4.7 89 5 110 1007
20.04 - 00:00 Uhr 6.3 0.0 4.6 89 6 140 1007
19.04 - 23:50 Uhr 5.9 0.0 4.4 90 3 210 1007
19.04 - 23:40 Uhr 6.2 0.0 4.5 89 4 140 1007
19.04 - 23:30 Uhr 6.0 0.0 4.1 87 7 130 1007
19.04 - 23:20 Uhr 6.5 0.0 4.3 86 8 140 1007
19.04 - 23:10 Uhr 6.6 0.0 4.5 86 9 140 1007
19.04 - 23:00 Uhr 7.0 0.0 4.5 84 7 140 1007
19.04 - 22:50 Uhr 7.1 0.0 4.7 84 5 70 1007
19.04 - 22:40 Uhr 7.3 0.0 4.8 84 4 30 1007
19.04 - 22:30 Uhr 8.0 0.0 4.9 81 7 50 1007
19.04 - 22:20 Uhr 8.2 0.0 4.8 79 9 40 1007
19.04 - 22:10 Uhr 8.9 0.0 4.7 75 8 60 1007
19.04 - 22:00 Uhr 9.9 0.0 4.4 69 13 70 1007
19.04 - 21:50 Uhr 9.8 0.0 4.4 69 13 60 1007
19.04 - 21:40 Uhr 10.5 0.0 4.4 66 15 50 1007
19.04 - 21:30 Uhr 11.0 0.0 4.7 65 17 40 1007
19.04 - 21:20 Uhr 9.0 0.0 5.0 76 13 360 1007
19.04 - 21:10 Uhr 8.9 0.0 5.0 76 3 80 1006
19.04 - 21:00 Uhr 9.5 0.0 4.9 73 3 40 1006
19.04 - 20:50 Uhr 9.7 0.0 5.1 73 4 60 1006
19.04 - 20:40 Uhr 10.0 0.0 5.2 72 4 30 1006
19.04 - 20:30 Uhr 10.7 0.0 5.4 70 5 50 1006
19.04 - 20:20 Uhr 11.8 0.0 4.3 60 6 40 1006
19.04 - 20:10 Uhr 13.1 0.0 3.6 52 6 340 1006
19.04 - 20:00 Uhr 13.7 0.0 2.4 46 8 330 1006
19.04 - 19:50 Uhr 14.0 0.0 2.4 46 12 340 1006
19.04 - 19:40 Uhr 14.3 0.0 2.4 45 9 340 1006
19.04 - 19:30 Uhr 14.7 0.0 2.1 43 7 340 1006
19.04 - 19:20 Uhr 15.0 0.0 1.5 40 9 330 1006
19.04 - 19:10 Uhr 15.3 0.0 2.8 43 8 300 1006
19.04 - 19:00 Uhr 15.6 0.0 2.0 40 9 30 1006
19.04 - 18:50 Uhr 15.5 0.0 2.1 41 11 10 1006
19.04 - 18:40 Uhr 15.3 0.0 2.3 42 18 350 1006
19.04 - 18:30 Uhr 15.2 0.0 1.8 40 26 350 1006
19.04 - 18:20 Uhr 15.4 0.0 2.0 40 26 350 1006
19.04 - 18:10 Uhr 15.6 0.0 2.3 41 23 10 1006
19.04 - 18:00 Uhr 15.8 0.0 2.4 41 23 30 1006
19.04 - 17:50 Uhr 15.6 0.0 2.5 41 32 20 1006
19.04 - 17:40 Uhr 15.4 0.0 2.0 41 24 350 1006
19.04 - 17:30 Uhr 15.6 0.0 2.8 42 33 350 1006
19.04 - 17:20 Uhr 15.9 0.0 2.9 42 33 340 1006
19.04 - 17:10 Uhr 16.4 0.0 3.1 41 28 340 1006
19.04 - 17:00 Uhr 16.1 0.0 3.6 43 29 360 1006
19.04 - 16:50 Uhr 15.8 0.0 3.4 44 28 340 1006
19.04 - 16:40 Uhr 16.1 0.0 2.5 40 28 340 1006
19.04 - 16:30 Uhr 16.3 0.0 3.8 43 32 30 1006
19.04 - 16:20 Uhr 16.3 0.0 4.2 44 27 30 1006
19.04 - 16:10 Uhr 16.4 0.0 4.4 45 28 30 1006
19.04 - 16:00 Uhr 16.2 0.0 3.2 42 26 340 1006
19.04 - 15:50 Uhr 16.0 0.0 3.8 44 43 360 1006
19.04 - 15:40 Uhr 16.1 0.0 4.2 45 36 30 1006
19.04 - 15:30 Uhr 16.2 0.0 3.5 43 24 310 1006
19.04 - 15:20 Uhr 16.0 0.0 4.0 45 29 360 1006
19.04 - 15:10 Uhr 16.4 0.0 5.3 48 24 360 1006
19.04 - 15:00 Uhr 15.1 0.0 4.0 47 27 350 1006
19.04 - 14:50 Uhr 16.7 0.0 6.4 51 26 340 1006
19.04 - 14:40 Uhr 15.9 0.0 6.1 52 28 330 1006
19.04 - 14:30 Uhr 15.9 0.0 6.2 53 23 330 1006
19.04 - 14:20 Uhr 15.3 0.0 5.9 53 31 350 1006
19.04 - 14:10 Uhr 15.5 0.0 6.3 54 21 350 1006
19.04 - 14:00 Uhr 15.1 0.0 6.2 55 28 350 1007
19.04 - 13:50 Uhr 14.7 0.0 6.4 58 23 10 1007
19.04 - 13:40 Uhr 14.9 0.0 6.8 58 30 340 1007
19.04 - 13:30 Uhr 14.7 0.0 7.5 62 32 360 1006
19.04 - 13:20 Uhr 14.5 0.0 7.5 63 28 340 1006
19.04 - 13:10 Uhr 14.6 0.0 8.2 66 25 310 1006
19.04 - 13:00 Uhr 15.2 0.0 9.9 71 23 350 1006
19.04 - 12:50 Uhr 14.0 0.0 8.4 69 28 360 1006
19.04 - 12:40 Uhr 13.2 0.0 9.5 78 30 10 1006
19.04 - 12:30 Uhr 13.9 0.0 9.2 73 25 340 1006
19.04 - 12:20 Uhr 14.6 0.0 9.9 73 17 290 1006
19.04 - 12:10 Uhr 14.0 0.0 9.5 74 18 330 1006
19.04 - 12:00 Uhr 13.2 0.0 9.6 79 22 310 1006
19.04 - 11:50 Uhr 13.6 0.0 9.8 78 14 340 1006
19.04 - 11:40 Uhr 14.0 0.0 10.0 77 14 310 1006
19.04 - 11:30 Uhr 13.3 0.0 10.0 81 8 230 1006
19.04 - 11:20 Uhr 12.8 0.0 10.4 85 5 240 1006
19.04 - 11:10 Uhr 12.2 0.0 10.1 87 8 300 1006
19.04 - 11:00 Uhr 12.4 0.0 10.1 86 6 280 1006
19.04 - 10:50 Uhr 12.5 0.0 9.8 83 8 300 1006
19.04 - 10:40 Uhr 12.6 0.0 9.8 83 8 250 1006
19.04 - 10:30 Uhr 12.8 0.0 9.6 81 5 320 1005
19.04 - 10:20 Uhr 13.0 0.0 10.3 84 5 310 1005
19.04 - 10:10 Uhr 12.5 0.0 10.5 87 4 40 1005
19.04 - 10:00 Uhr 12.3 0.0 10.0 86 4 90 1005
19.04 - 09:50 Uhr 12.4 0.0 10.3 87 4 130 1005
19.04 - 09:40 Uhr 12.0 0.5 9.9 87 7 50 1005
19.04 - 09:30 Uhr 11.8 0.3 9.7 87 9 310 1005
19.04 - 09:20 Uhr 12.1 0.0 9.9 86 8 100 1005
19.04 - 09:10 Uhr 11.7 0.1 10.1 90 12 100 1004
19.04 - 09:00 Uhr 11.6 0.2 9.8 89 10 110 1004
19.04 - 08:50 Uhr 12.2 0.0 10.1 87 9 350 1004
19.04 - 08:40 Uhr 12.1 0.0 9.7 85 12 10 1005
19.04 - 08:30 Uhr 12.0 0.0 9.9 87 10 100 1004
19.04 - 08:20 Uhr 11.6 0.0 9.9 89 10 90 1004
19.04 - 08:10 Uhr 11.4 0.1 9.4 88 9 80 1004
19.04 - 08:00 Uhr 11.2 0.2 9.5 89 14 90 1004

Daten: Quelle DWD